Glenpool, Oklahoma
Current Conditions -  °F | °C
As of 8:53 PM on Monday 26 Jan 2015 (Local Time) from KRVS Reporting Station
Clear Clear  
Wind Chill: 45°   Ceiling: Unl
Heat Index: 45°   Visibility: 10mi
Dew Point: 35°   Wind: 0mph
Humidity: 68%   Direction: NA
Pressure: 30.03"   Gusts: NA
Location:  35.95°N, 96.01°W
Report Text: KRVS 270253Z 00000KT 10SM CLR 07/02 A3003 RMK AO2 SLP177 T00720017 53009
Loading
Personal Weather Stations






























Interactive Weather Map New forecast layout! Learn more

10-Day Weather Forecast

Advertisements
Track Severe Weather on mobile